Hauptseite
METAR-TAF:

METAR-TAF

Flughäfen :

Farnborough Airfield

Farnborough, England

Breite: 51-17N, Länge: 000-46W, Höhe: 65 m

Beobachtung

Neuester Wetterbericht von vor 40 Minuten, um 09:50 UTC
Wind 3 kt aus unterschiedlichen Richtungen
Temperatur 21°C
Luftfeuchtigkeit 49%
Luftdruck 1035 hPa
Sichtweite 10 km oder mehr

METAR: EGLF 270950Z AUTO VRB03KT 9999 NCD 21/10 Q1035

Zeit: 11:30 (10:30 UTC)

Prognose

Neuester Wetterbericht von vor 2 Stunden und 33 Minuten, um 07:57 UTC
Gültige Prognose vom 27 um 09 UTC bis 27 um 18 UTC
Wind 4 kt aus unterschiedlichen Richtungen
Sichtweite 10 km oder mehr
keine Wolken unter 1500 m und keine Kumulonimbus oder Gewitterwolken

TAF: EGLF 270757Z 2709/2718 VRB04KT CAVOK

Wetterbeobachtungen und Prognosen von mehr als 4000 Flughäfen (METAR und TAF Bericht).

Die verfügbaren Stationen werden durch gelbe und rote Markierungen auf der Karte dargestellt.

Führen Sie die Maus auf sie, um den Namen der Station zu sehen.

Darauf klicken, um die Beobachtung von Wetterbeobachtungen und Prognosen zu sehen.

Um die Karte zu ändern : klicken Sie auf den grünen Tasten mit einem schwarzen Kreuz Zum Vergrößern, auf den grünen Button mit einem Gedankenstrich zu verkleinern, oder auf die grünen Pfeile für benachbarte Karten.


METAR-TAF: